Time;durP1;ratioP1;P1;durP2;ratioP2;P2;SDS_P1;SDS_P2;PMS_P1;PMS_P2;Temp;Humidity;BMP_temperature;BMP_pressure;BME280_temperature;BME280_humidity;BME280_pressure;Samples;Min_cycle;Max_cycle;Signal;HPM_P1;HPM_P2
2022/03/13 00:00:34;;;;;;;;;;;;;;;;;;5115804;28;19926;-77
2022/03/13 00:03:09;;;;;;;;;;;;;;;;;;5116026;28;20400;-78
2022/03/13 00:05:36;;;;;;;;;;;;;;;;;;5097734;28;19923;-77
2022/03/13 00:08:02;;;;;;;;;;;;;;;;;;5114230;28;19964;-77
2022/03/13 00:10:27;;;;;;;;;;;;;;;;;;5115003;27;19915;-77
2022/03/13 00:12:54;;;;;;;;;;;;;;;;;;5113473;28;19931;-77
2022/03/13 00:15:23;;;;;;;;;;;;;;;;;;5115564;28;19947;-78
2022/03/13 00:17:49;;;;;;;;;;;;;;;;;;5115602;28;19923;-78
2022/03/13 00:20:14;;;;;;;;;;;;;;;;;;5115741;28;19915;-77
2022/03/13 00:22:40;;;;;;;;;;;;;;;;;;5115995;28;20377;-78
2022/03/13 00:25:08;;;;;;;;;;;;;;;;;;5114933;28;20287;-77
2022/03/13 00:27:34;;;;;;;;;;;;;;;;;;5117517;28;19916;-78
2022/03/13 00:30:03;;;;;;;;;;;;;;;;;;5119709;28;19965;-78
2022/03/13 00:32:28;;;;;;;;;;;;;;;;;;5119974;28;19966;-77
2022/03/13 00:34:54;;;;;;;;;;;;;;;;;;5118237;28;20278;-78
2022/03/13 00:37:19;;;;;;;;;;;;;;;;;;5081789;28;19965;-77
2022/03/13 00:39:46;;;;;;;;;;;;;;;;;;5108368;28;19915;-77
2022/03/13 00:42:15;;;;;;;;;;;;;;;;;;5118554;28;19966;-78
2022/03/13 00:44:41;;;;;;;;;;;;;;;;;;5102500;27;20014;-78
2022/03/13 00:47:06;;;;;;;;;;;;;;;;;;5097196;28;19959;-78
2022/03/13 00:49:32;;;;;;;;;;;;;;;;;;5097919;28;19920;-78
2022/03/13 00:51:59;;;;;;;;;;;;;;;;;;5096377;28;19916;-78
2022/03/13 00:54:24;;;;;;;;;;;;;;;;;;5097806;28;19923;-77
2022/03/13 00:56:50;;;;;;;;;;;;;;;;;;5103565;28;20331;-78
2022/03/13 00:59:16;;;;;;;;;;;;;;;;;;5106640;28;19919;-78
2022/03/13 01:01:41;;;;;;;;;;;;;;;;;;5107290;28;19963;-78
2022/03/13 01:04:06;;;;;;;;;;;;;;;;;;5098183;28;19983;-78
2022/03/13 01:06:32;;;;;;;;;;;;;;;;;;5086316;28;19947;-78
2022/03/13 01:08:57;;;;;;;;;;;;;;;;;;5116874;28;19924;-78
2022/03/13 01:11:24;;;;;;;;;;;;;;;;;;5116843;28;19916;-78
2022/03/13 01:13:50;;;;;;;;;;;;;;;;;;5100265;28;19916;-78
2022/03/13 01:16:15;;;;;;;;;;;;;;;;;;5118422;28;20002;-78
2022/03/13 01:18:45;;;;;;;;;;;;;;;;;;5117465;27;19922;-78
2022/03/13 01:21:11;;;;;;;;;;;;;;;;;;5117199;28;19916;-77
2022/03/13 01:23:38;;;;;;;;;;;;;;;;;;5115622;28;19916;-78
2022/03/13 01:26:23;;;;;;;;;;;;;;;;;;5098512;28;19922;-76
2022/03/13 01:28:50;;;;;;;;;;;;;;;;;;5097743;28;19923;-78
2022/03/13 01:31:16;;;;;;;;;;;;;;;;;;5096858;28;19920;-78
2022/03/13 01:33:41;;;;;;;;;;;;;;;;;;5097831;28;19916;-77
2022/03/13 01:36:06;;;;;;;;;;;;;;;;;;5096839;28;20358;-77
2022/03/13 01:38:34;;;;;;;;;;;;;;;;;;5096871;28;20019;-78
2022/03/13 01:40:59;;;;;;;;;;;;;;;;;;5097176;28;19968;-78
2022/03/13 01:43:25;;;;;;;;;;;;;;;;;;5097511;28;19920;-78
2022/03/13 01:45:51;;;;;;;;;;;;;;;;;;5080092;28;19920;-78
2022/03/13 01:48:16;;;;;;;;;;;;;;;;;;5105323;28;20337;-78
2022/03/13 01:50:42;;;;;;;;;;;;;;;;;;5117145;27;19915;-77
2022/03/13 01:53:07;;;;;;;;;;;;;;;;;;5118337;28;19916;-78
2022/03/13 01:55:33;;;;;;;;;;;;;;;;;;5118354;28;19924;-78
2022/03/13 01:57:59;;;;;;;;;;;;;;;;;;5118876;28;19965;-78
2022/03/13 02:00:24;;;;;;;;;;;;;;;;;;5116511;28;19915;-78
2022/03/13 02:02:49;;;;;;;;;;;;;;;;;;5115758;28;20003;-78
2022/03/13 02:05:30;;;;;;;;;;;;;;;;;;5099095;28;19955;-78
2022/03/13 02:07:56;;;;;;;;;;;;;;;;;;5116598;28;19916;-78
2022/03/13 02:10:24;;;;;;;;;;;;;;;;;;5116892;28;22343;-78
2022/03/13 02:12:50;;;;;;;;;;;;;;;;;;5116538;28;19915;-78
2022/03/13 02:15:15;;;;;;;;;;;;;;;;;;5117113;28;19916;-78
2022/03/13 02:17:40;;;;;;;;;;;;;;;;;;5099842;28;19969;-78
2022/03/13 02:20:11;;;;;;;;;;;;;;;;;;5116947;28;20373;-77
2022/03/13 02:22:37;;;;;;;;;;;;;;;;;;5118410;28;19915;-78
2022/03/13 02:25:02;;;;;;;;;;;;;;;;;;5100507;28;19968;-78
2022/03/13 02:27:32;;;;;;;;;;;;;;;;;;5099949;28;19962;-78
2022/03/13 02:29:57;;;;;;;;;;;;;;;;;;5116942;28;20014;-78
2022/03/13 02:32:22;;;;;;;;;;;;;;;;;;5118599;28;20713;-78
2022/03/13 02:34:48;;;;;;;;;;;;;;;;;;5116169;28;19923;-78
2022/03/13 02:37:19;;;;;;;;;;;;;;;;;;5116216;28;19919;-78
2022/03/13 02:39:44;;;;;;;;;;;;;;;;;;5116653;28;19955;-78
2022/03/13 02:42:09;;;;;;;;;;;;;;;;;;5116910;28;19939;-78
2022/03/13 02:44:35;;;;;;;;;;;;;;;;;;5100584;28;19916;-77
2022/03/13 02:47:03;;;;;;;;;;;;;;;;;;5116358;28;20303;-78
2022/03/13 02:49:29;;;;;;;;;;;;;;;;;;5115032;28;19920;-78
2022/03/13 02:51:55;;;;;;;;;;;;;;;;;;5114367;28;20376;-78
2022/03/13 02:54:21;;;;;;;;;;;;;;;;;;5115594;28;20374;-78
2022/03/13 02:56:47;;;;;;;;;;;;;;;;;;5115437;28;19960;-77
2022/03/13 02:59:13;;;;;;;;;;;;;;;;;;5115123;28;19930;-78
2022/03/13 03:01:39;;;;;;;;;;;;;;;;;;5097660;28;20011;-78
2022/03/13 03:04:05;;;;;;;;;;;;;;;;;;5114673;28;19922;-77
2022/03/13 03:06:31;;;;;;;;;;;;;;;;;;5115957;28;19915;-78
2022/03/13 03:08:56;;;;;;;;;;;;;;;;;;5115352;28;19962;-78
2022/03/13 03:11:22;;;;;;;;;;;;;;;;;;5117056;28;19947;-77
2022/03/13 03:13:47;;;;;;;;;;;;;;;;;;5116108;28;19920;-78
2022/03/13 03:16:13;;;;;;;;;;;;;;;;;;5117255;28;19926;-78
2022/03/13 03:18:38;;;;;;;;;;;;;;;;;;5117174;28;20258;-78
2022/03/13 03:21:04;;;;;;;;;;;;;;;;;;5115871;28;19922;-78
2022/03/13 03:23:29;;;;;;;;;;;;;;;;;;5116590;28;19916;-78
2022/03/13 03:25:54;;;;;;;;;;;;;;;;;;5116440;28;19915;-78
2022/03/13 03:28:21;;;;;;;;;;;;;;;;;;5114489;28;19955;-78
2022/03/13 03:30:46;;;;;;;;;;;;;;;;;;5115812;28;19919;-78
2022/03/13 03:33:11;;;;;;;;;;;;;;;;;;5098060;28;20281;-78
2022/03/13 03:35:37;;;;;;;;;;;;;;;;;;5115761;28;20523;-78
2022/03/13 03:38:02;;;;;;;;;;;;;;;;;;5115949;28;19920;-78
2022/03/13 03:40:29;;;;;;;;;;;;;;;;;;5116403;28;19916;-77
2022/03/13 03:42:57;;;;;;;;;;;;;;;;;;5116009;28;19915;-78
2022/03/13 03:45:23;;;;;;;;;;;;;;;;;;5115037;28;20322;-77
2022/03/13 03:47:48;;;;;;;;;;;;;;;;;;5115265;28;19916;-78
2022/03/13 03:50:14;;;;;;;;;;;;;;;;;;5116883;27;19934;-78
2022/03/13 03:52:40;;;;;;;;;;;;;;;;;;5115632;28;19964;-78
2022/03/13 03:55:05;;;;;;;;;;;;;;;;;;5116746;28;19916;-78
2022/03/13 03:57:30;;;;;;;;;;;;;;;;;;5116924;28;20478;-78
2022/03/13 03:59:56;;;;;;;;;;;;;;;;;;5117441;28;19916;-78
2022/03/13 04:02:21;;;;;;;;;;;;;;;;;;5101945;28;20365;-78
2022/03/13 04:04:47;;;;;;;;;;;;;;;;;;5121600;28;20299;-78
2022/03/13 04:07:13;;;;;;;;;;;;;;;;;;5119996;28;19929;-77
2022/03/13 04:09:39;;;;;;;;;;;;;;;;;;5121276;28;20412;-78
2022/03/13 04:12:08;;;;;;;;;;;;;;;;;;5103223;28;20373;-77
2022/03/13 04:14:36;;;;;;;;;;;;;;;;;;5118770;27;20292;-78
2022/03/13 04:17:02;;;;;;;;;;;;;;;;;;5118017;28;19916;-78
2022/03/13 04:19:27;;;;;;;;;;;;;;;;;;5118001;28;19922;-78
2022/03/13 04:21:53;;;;;;;;;;;;;;;;;;5119449;27;19919;-77
2022/03/13 04:24:19;;;;;;;;;;;;;;;;;;5118876;28;19981;-78
2022/03/13 04:26:44;;;;;;;;;;;;;;;;;;5117562;28;20007;-78
2022/03/13 04:29:10;;;;;;;;;;;;;;;;;;5118097;28;19923;-78
2022/03/13 04:31:37;;;;;;;;;;;;;;;;;;5119123;27;19920;-78
2022/03/13 04:34:03;;;;;;;;;;;;;;;;;;5118327;28;19916;-77
2022/03/13 04:36:32;;;;;;;;;;;;;;;;;;5119344;28;20284;-78
2022/03/13 04:38:57;;;;;;;;;;;;;;;;;;5101123;28;19916;-78
2022/03/13 04:41:23;;;;;;;;;;;;;;;;;;5118142;28;19965;-78
2022/03/13 04:43:48;;;;;;;;;;;;;;;;;;5117641;28;19916;-78
2022/03/13 04:46:15;;;;;;;;;;;;;;;;;;5118413;28;20448;-78
2022/03/13 04:48:40;;;;;;;;;;;;;;;;;;5100097;28;19916;-77
2022/03/13 04:51:05;;;;;;;;;;;;;;;;;;5118698;27;19939;-78
2022/03/13 04:53:31;;;;;;;;;;;;;;;;;;5118924;28;19912;-78
2022/03/13 04:55:56;;;;;;;;;;;;;;;;;;5117595;28;19943;-78
2022/03/13 04:58:21;;;;;;;;;;;;;;;;;;5118836;28;19977;-78
2022/03/13 05:00:48;;;;;;;;;;;;;;;;;;5100507;28;19915;-78
2022/03/13 05:03:14;;;;;;;;;;;;;;;;;;5116874;28;19916;-78
2022/03/13 05:05:40;;;;;;;;;;;;;;;;;;5118412;28;20311;-77
2022/03/13 05:08:06;;;;;;;;;;;;;;;;;;5118011;28;20269;-78
2022/03/13 05:10:36;;;;;;;;;;;;;;;;;;5118477;28;20014;-77
2022/03/13 05:13:05;;;;;;;;;;;;;;;;;;5118676;28;19920;-78
2022/03/13 05:15:31;;;;;;;;;;;;;;;;;;5118464;28;20289;-78
2022/03/13 05:17:56;;;;;;;;;;;;;;;;;;5118484;27;19915;-77
2022/03/13 05:20:21;;;;;;;;;;;;;;;;;;5118509;28;19919;-78
2022/03/13 05:22:47;;;;;;;;;;;;;;;;;;5116974;28;19916;-77
2022/03/13 05:25:13;;;;;;;;;;;;;;;;;;5100119;28;19919;-78
2022/03/13 05:27:39;;;;;;;;;;;;;;;;;;5099942;28;19999;-78
2022/03/13 05:30:07;;;;;;;;;;;;;;;;;;5116766;28;20400;-77
2022/03/13 05:32:34;;;;;;;;;;;;;;;;;;5118408;28;19920;-78
2022/03/13 05:34:59;;;;;;;;;;;;;;;;;;5118092;28;19962;-78
2022/03/13 05:37:25;;;;;;;;;;;;;;;;;;5116907;28;20265;-78
2022/03/13 05:39:50;;;;;;;;;;;;;;;;;;5115895;28;19912;-78
2022/03/13 05:42:16;;;;;;;;;;;;;;;;;;5099298;28;19916;-77
2022/03/13 05:44:41;;;;;;;;;;;;;;;;;;5119088;28;19922;-79
2022/03/13 05:47:06;;;;;;;;;;;;;;;;;;5116778;28;19915;-76
2022/03/13 05:49:32;;;;;;;;;;;;;;;;;;5116452;28;19975;-77
2022/03/13 05:51:57;;;;;;;;;;;;;;;;;;5114400;28;19919;-77
2022/03/13 05:54:23;;;;;;;;;;;;;;;;;;5111815;27;19920;-76
2022/03/13 05:56:48;;;;;;;;;;;;;;;;;;5115742;28;19920;-76
2022/03/13 05:59:14;;;;;;;;;;;;;;;;;;5114362;28;19965;-76
2022/03/13 06:01:39;;;;;;;;;;;;;;;;;;5115488;28;19916;-76
2022/03/13 06:04:06;;;;;;;;;;;;;;;;;;5100595;28;19916;-76
2022/03/13 06:06:34;;;;;;;;;;;;;;;;;;5094979;28;19916;-75
2022/03/13 06:08:59;;;;;;;;;;;;;;;;;;5095178;28;20335;-76
2022/03/13 06:11:24;;;;;;;;;;;;;;;;;;5093789;28;19916;-76
2022/03/13 06:13:50;;;;;;;;;;;;;;;;;;5114773;28;19923;-76
2022/03/13 06:16:15;;;;;;;;;;;;;;;;;;5114398;28;19916;-76
2022/03/13 06:18:41;;;;;;;;;;;;;;;;;;5115195;28;19915;-76
2022/03/13 06:21:06;;;;;;;;;;;;;;;;;;5115164;28;19916;-76
2022/03/13 06:23:33;;;;;;;;;;;;;;;;;;5115252;28;19965;-75
2022/03/13 06:26:00;;;;;;;;;;;;;;;;;;5114768;28;19951;-75
2022/03/13 06:28:26;;;;;;;;;;;;;;;;;;5115110;28;20006;-76
2022/03/13 06:30:51;;;;;;;;;;;;;;;;;;5113769;28;20068;-76
2022/03/13 06:33:17;;;;;;;;;;;;;;;;;;5115281;28;19916;-76
2022/03/13 06:35:42;;;;;;;;;;;;;;;;;;5115119;28;20361;-76
2022/03/13 06:38:07;;;;;;;;;;;;;;;;;;5115113;28;19916;-75
2022/03/13 06:40:33;;;;;;;;;;;;;;;;;;5114884;28;20008;-74
2022/03/13 06:42:58;;;;;;;;;;;;;;;;;;5113252;28;19938;-75
2022/03/13 06:45:24;;;;;;;;;;;;;;;;;;5115013;28;19923;-74
2022/03/13 06:47:49;;;;;;;;;;;;;;;;;;5114856;28;19916;-75
2022/03/13 06:50:17;;;;;;;;;;;;;;;;;;5114664;28;19920;-75
2022/03/13 06:52:47;;;;;;;;;;;;;;;;;;5111592;28;19916;-75
2022/03/13 06:55:13;;;;;;;;;;;;;;;;;;5105469;28;19970;-75
2022/03/13 06:57:42;;;;;;;;;;;;;;;;;;5108908;28;20297;-75
2022/03/13 07:00:08;;;;;;;;;;;;;;;;;;5115754;28;19955;-75
2022/03/13 07:02:33;;;;;;;;;;;;;;;;;;5113985;28;20388;-77
2022/03/13 07:04:59;;;;;;;;;;;;;;;;;;5113943;28;19916;-78
2022/03/13 07:07:24;;;;;;;;;;;;;;;;;;5114468;28;19916;-78
2022/03/13 07:09:49;;;;;;;;;;;;;;;;;;5114378;28;19920;-77
2022/03/13 07:12:16;;;;;;;;;;;;;;;;;;5113880;27;19916;-77
2022/03/13 07:14:47;;;;;;;;;;;;;;;;;;5113440;28;19915;-78
2022/03/13 07:17:12;;;;;;;;;;;;;;;;;;5114168;28;19916;-77
2022/03/13 07:19:39;;;;;;;;;;;;;;;;;;5114228;28;19915;-77
2022/03/13 07:22:05;;;;;;;;;;;;;;;;;;5112905;28;19920;-77
2022/03/13 07:24:30;;;;;;;;;;;;;;;;;;5114273;28;19923;-77
2022/03/13 07:26:55;;;;;;;;;;;;;;;;;;5114275;28;19916;-77
2022/03/13 07:29:20;;;;;;;;;;;;;;;;;;5113876;28;19920;-77
2022/03/13 07:31:46;;;;;;;;;;;;;;;;;;5113970;28;19920;-77
2022/03/13 07:34:11;;;;;;;;;;;;;;;;;;5113983;28;19924;-77
2022/03/13 07:36:39;;;;;;;;;;;;;;;;;;5113213;28;19920;-77
2022/03/13 07:39:04;;;;;;;;;;;;;;;;;;5112987;28;20014;-78
2022/03/13 07:41:30;;;;;;;;;;;;;;;;;;5114117;28;19958;-77
2022/03/13 07:43:55;;;;;;;;;;;;;;;;;;5113042;28;19966;-78
2022/03/13 07:46:20;;;;;;;;;;;;;;;;;;5115203;28;19915;-78
2022/03/13 07:48:46;;;;;;;;;;;;;;;;;;5113005;28;19919;-77
2022/03/13 07:51:12;;;;;;;;;;;;;;;;;;5114443;28;19924;-77
2022/03/13 07:53:38;;;;;;;;;;;;;;;;;;5113791;28;20004;-77
2022/03/13 07:56:03;;;;;;;;;;;;;;;;;;5113996;28;19955;-77
2022/03/13 07:58:29;;;;;;;;;;;;;;;;;;5113678;28;19916;-77
2022/03/13 08:00:54;;;;;;;;;;;;;;;;;;5113878;28;19916;-76
2022/03/13 08:03:29;;;;;;;;;;;;;;;;;;5113502;27;19915;-77
2022/03/13 08:05:55;;;;;;;;;;;;;;;;;;5096300;28;19954;-77
2022/03/13 08:08:20;;;;;;;;;;;;;;;;;;5115115;28;20288;-80
2022/03/13 08:10:46;;;;;;;;;;;;;;;;;;5115907;28;19920;-76
2022/03/13 08:13:11;;;;;;;;;;;;;;;;;;5114146;28;19922;-78
2022/03/13 08:15:38;;;;;;;;;;;;;;;;;;5111026;28;19962;-79
2022/03/13 08:18:03;;;;;;;;;;;;;;;;;;5112989;28;19916;-79
2022/03/13 08:20:28;;;;;;;;;;;;;;;;;;5106420;28;19964;-79
2022/03/13 08:22:53;;;;;;;;;;;;;;;;;;5107237;28;19919;-79
2022/03/13 08:25:19;;;;;;;;;;;;;;;;;;5107552;28;19916;-79
2022/03/13 08:27:45;;;;;;;;;;;;;;;;;;5106429;28;20038;-79
2022/03/13 08:30:12;;;;;;;;;;;;;;;;;;5105092;28;19934;-79
2022/03/13 08:32:38;;;;;;;;;;;;;;;;;;5102611;28;19924;-79
2022/03/13 08:35:04;;;;;;;;;;;;;;;;;;5111071;28;19919;-80
2022/03/13 08:37:30;;;;;;;;;;;;;;;;;;5105303;28;19999;-80
2022/03/13 08:39:55;;;;;;;;;;;;;;;;;;5107092;28;19970;-78
2022/03/13 08:42:22;;;;;;;;;;;;;;;;;;5107899;28;19916;-80
2022/03/13 08:44:50;;;;;;;;;;;;;;;;;;5106132;28;19916;-80
2022/03/13 08:47:15;;;;;;;;;;;;;;;;;;5107424;28;19977;-80
2022/03/13 08:49:40;;;;;;;;;;;;;;;;;;5105945;28;19924;-80
2022/03/13 08:52:06;;;;;;;;;;;;;;;;;;5107621;27;19916;-80
2022/03/13 08:54:31;;;;;;;;;;;;;;;;;;5112007;28;19922;-80
2022/03/13 08:56:57;;;;;;;;;;;;;;;;;;5108858;28;19922;-80
2022/03/13 08:59:23;;;;;;;;;;;;;;;;;;5109054;27;20077;-79
2022/03/13 09:01:54;;;;;;;;;;;;;;;;;;5108487;28;19916;-78
2022/03/13 09:04:20;;;;;;;;;;;;;;;;;;5107713;28;19941;-77
2022/03/13 09:06:46;;;;;;;;;;;;;;;;;;5112694;28;19916;-78
2022/03/13 09:09:12;;;;;;;;;;;;;;;;;;5125494;28;20077;-79
2022/03/13 09:11:37;;;;;;;;;;;;;;;;;;5130878;28;19916;-78
2022/03/13 09:14:05;;;;;;;;;;;;;;;;;;5129528;28;19916;-79
2022/03/13 09:16:32;;;;;;;;;;;;;;;;;;5126645;28;19916;-78
2022/03/13 09:18:59;;;;;;;;;;;;;;;;;;5126750;28;19934;-80
2022/03/13 09:21:24;;;;;;;;;;;;;;;;;;5124196;28;19915;-81
2022/03/13 09:23:49;;;;;;;;;;;;;;;;;;5123110;28;20266;-81
2022/03/13 09:26:15;;;;;;;;;;;;;;;;;;5123511;28;20301;-80
2022/03/13 09:28:40;;;;;;;;;;;;;;;;;;5125749;28;19923;-80
2022/03/13 09:31:06;;;;;;;;;;;;;;;;;;5133331;28;19923;-80
2022/03/13 09:33:31;;;;;;;;;;;;;;;;;;5125729;28;19915;-80
2022/03/13 09:35:56;;;;;;;;;;;;;;;;;;5124309;28;19915;-81
2022/03/13 09:38:25;;;;;;;;;;;;;;;;;;5122894;28;19958;-79
2022/03/13 09:40:50;;;;;;;;;;;;;;;;;;5124294;27;19916;-81
2022/03/13 09:43:17;;;;;;;;;;;;;;;;;;5129356;28;19973;-80
2022/03/13 09:45:42;;;;;;;;;;;;;;;;;;5128006;28;19922;-77
2022/03/13 09:48:09;;;;;;;;;;;;;;;;;;5120846;28;19912;-77
2022/03/13 09:50:34;;;;;;;;;;;;;;;;;;5114619;28;19938;-77
2022/03/13 09:52:59;;;;;;;;;;;;;;;;;;5115944;28;19919;-78
2022/03/13 09:55:26;;;;;;;;;;;;;;;;;;5121357;28;20005;-77
2022/03/13 09:57:52;;;;;;;;;;;;;;;;;;5116245;28;20015;-76
2022/03/13 10:00:20;;;;;;;;;;;;;;;;;;5114206;28;19951;-77
2022/03/13 10:02:45;;;;;;;;;;;;;;;;;;5112971;28;19923;-77
2022/03/13 10:05:15;;;;;;;;;;;;;;;;;;5112375;28;19917;-77
2022/03/13 10:07:59;;;;;;;;;;;;;;;;;;5115925;28;19923;-77
2022/03/13 10:10:26;;;;;;;;;;;;;;;;;;5115820;28;19947;-76
2022/03/13 10:12:52;;;;;;;;;;;;;;;;;;5114616;28;20269;-77
2022/03/13 10:15:18;;;;;;;;;;;;;;;;;;5100442;28;19912;-77
2022/03/13 10:17:44;;;;;;;;;;;;;;;;;;5095560;28;19927;-77
2022/03/13 10:20:16;;;;;;;;;;;;;;;;;;5095952;28;19923;-77
2022/03/13 10:22:43;;;;;;;;;;;;;;;;;;5093770;28;19916;-77
2022/03/13 10:25:08;;;;;;;;;;;;;;;;;;5095772;28;19916;-77
2022/03/13 10:27:33;;;;;;;;;;;;;;;;;;5095670;28;20309;-77
2022/03/13 10:30:04;;;;;;;;;;;;;;;;;;5093993;28;19920;-77
2022/03/13 10:32:29;;;;;;;;;;;;;;;;;;5095123;28;19966;-76
2022/03/13 10:34:56;;;;;;;;;;;;;;;;;;5095486;28;19920;-77
2022/03/13 10:37:31;;;;;;;;;;;;;;;;;;5095521;28;19920;-78
2022/03/13 10:40:07;;;;;;;;;;;;;;;;;;5102492;28;19922;-79
2022/03/13 10:42:32;;;;;;;;;;;;;;;;;;5110654;28;20287;-79
2022/03/13 10:45:06;;;;;;;;;;;;;;;;;;5124013;28;19916;-79
2022/03/13 10:47:34;;;;;;;;;;;;;;;;;;5121382;28;19954;-79
2022/03/13 10:49:59;;;;;;;;;;;;;;;;;;5123727;28;20370;-78
2022/03/13 10:52:29;;;;;;;;;;;;;;;;;;5123441;28;19916;-79
2022/03/13 10:54:55;;;;;;;;;;;;;;;;;;5121433;28;19920;-78
2022/03/13 10:57:20;;;;;;;;;;;;;;;;;;5117913;28;20388;-77
2022/03/13 11:00:04;;;;;;;;;;;;;;;;;;5116108;28;19915;-77
2022/03/13 11:02:31;;;;;;;;;;;;;;;;;;5115249;27;20259;-77
2022/03/13 11:04:57;;;;;;;;;;;;;;;;;;5114554;28;20409;-77
2022/03/13 11:07:22;;;;;;;;;;;;;;;;;;5096690;28;19959;-77
2022/03/13 11:09:48;;;;;;;;;;;;;;;;;;5114675;28;19920;-77
2022/03/13 11:12:17;;;;;;;;;;;;;;;;;;5113869;27;19919;-77
2022/03/13 11:14:51;;;;;;;;;;;;;;;;;;5114556;28;19923;-77
2022/03/13 11:17:20;;;;;;;;;;;;;;;;;;5114872;28;19916;-77
2022/03/13 11:19:49;;;;;;;;;;;;;;;;;;5116071;28;20366;-78
2022/03/13 11:22:17;;;;;;;;;;;;;;;;;;5119611;28;19964;-78
2022/03/13 11:24:43;;;;;;;;;;;;;;;;;;5104226;28;19968;-78
2022/03/13 11:27:11;;;;;;;;;;;;;;;;;;5121484;28;19922;-78
2022/03/13 11:29:42;;;;;;;;;;;;;;;;;;5119396;28;20526;-78
2022/03/13 11:32:26;;;;;;;;;;;;;;;;;;5105138;28;20342;-79
2022/03/13 11:35:10;;;;;;;;;;;;;;;;;;5124010;28;19916;-78
2022/03/13 11:37:36;;;;;;;;;;;;;;;;;;5123911;28;19916;-79
2022/03/13 11:40:02;;;;;;;;;;;;;;;;;;5122697;28;19912;-78
2022/03/13 11:42:43;;;;;;;;;;;;;;;;;;5122104;28;19919;-78
2022/03/13 11:45:32;;;;;;;;;;;;;;;;;;5119588;28;20450;-78
2022/03/13 11:48:19;;;;;;;;;;;;;;;;;;5119274;28;20438;-78
2022/03/13 11:50:52;;;;;;;;;;;;;;;;;;5117164;28;20407;-78
2022/03/13 11:53:32;;;;;;;;;;;;;;;;;;5118103;28;19983;-78
2022/03/13 11:55:57;;;;;;;;;;;;;;;;;;5101855;28;19961;-79
2022/03/13 11:58:47;;;;;;;;;;;;;;;;;;5120899;28;19919;-79
2022/03/13 12:02:00;;;;;;;;;;;;;;;;;;5127522;28;19983;-79
2022/03/13 12:04:34;;;;;;;;;;;;;;;;;;5124825;28;20002;-79
2022/03/13 12:07:00;;;;;;;;;;;;;;;;;;5123614;28;19923;-77
2022/03/13 12:09:28;;;;;;;;;;;;;;;;;;5118880;28;20345;-77
2022/03/13 12:12:00;;;;;;;;;;;;;;;;;;5120267;28;19916;-78
2022/03/13 12:14:49;;;;;;;;;;;;;;;;;;5118171;28;20385;-79
2022/03/13 12:17:15;;;;;;;;;;;;;;;;;;5119256;28;19951;-81
2022/03/13 12:19:41;;;;;;;;;;;;;;;;;;5120894;28;19955;-78
2022/03/13 12:22:07;;;;;;;;;;;;;;;;;;5125003;28;19920;-78
2022/03/13 12:24:33;;;;;;;;;;;;;;;;;;5124949;28;19922;-79
2022/03/13 12:27:02;;;;;;;;;;;;;;;;;;5126377;28;19916;-79
2022/03/13 12:29:32;;;;;;;;;;;;;;;;;;5125463;28;19920;-79
2022/03/13 12:31:59;;;;;;;;;;;;;;;;;;5123961;28;20400;-78
2022/03/13 12:34:25;;;;;;;;;;;;;;;;;;5122750;28;19959;-78
2022/03/13 12:36:51;;;;;;;;;;;;;;;;;;5122362;28;19923;-79
2022/03/13 12:39:17;;;;;;;;;;;;;;;;;;5120775;28;19919;-78
2022/03/13 12:41:46;;;;;;;;;;;;;;;;;;5117683;28;19915;-78
2022/03/13 12:44:12;;;;;;;;;;;;;;;;;;5120301;27;20381;-78
2022/03/13 12:46:38;;;;;;;;;;;;;;;;;;5122261;28;19916;-78
2022/03/13 12:49:05;;;;;;;;;;;;;;;;;;5121136;28;19920;-79
2022/03/13 12:51:41;;;;;;;;;;;;;;;;;;5120353;28;19935;-78
2022/03/13 12:54:12;;;;;;;;;;;;;;;;;;5113738;27;19916;-78
2022/03/13 12:56:43;;;;;;;;;;;;;;;;;;5101260;28;20432;-78
2022/03/13 12:59:19;;;;;;;;;;;;;;;;;;5103631;28;20015;-78
2022/03/13 13:01:45;;;;;;;;;;;;;;;;;;5119386;28;19920;-77
2022/03/13 13:04:12;;;;;;;;;;;;;;;;;;5117781;28;19940;-77
2022/03/13 13:06:39;;;;;;;;;;;;;;;;;;5119417;28;19916;-77
2022/03/13 13:09:04;;;;;;;;;;;;;;;;;;5116236;28;19927;-79
2022/03/13 13:11:30;;;;;;;;;;;;;;;;;;5102875;28;19920;-78
2022/03/13 13:14:01;;;;;;;;;;;;;;;;;;5122630;27;19944;-78
2022/03/13 13:16:32;;;;;;;;;;;;;;;;;;5123597;28;20289;-82
2022/03/13 13:18:58;;;;;;;;;;;;;;;;;;5121669;28;19915;-77
2022/03/13 13:21:37;;;;;;;;;;;;;;;;;;5119799;27;19923;-79
2022/03/13 13:24:21;;;;;;;;;;;;;;;;;;5117366;28;19955;-78
2022/03/13 13:26:47;;;;;;;;;;;;;;;;;;5099909;28;20033;-78
2022/03/13 13:29:12;;;;;;;;;;;;;;;;;;5103002;28;19952;-78
2022/03/13 13:31:39;;;;;;;;;;;;;;;;;;5097720;28;20002;-78
2022/03/13 13:34:14;;;;;;;;;;;;;;;;;;5097756;28;20397;-78
2022/03/13 13:36:40;;;;;;;;;;;;;;;;;;5097889;28;19938;-78
2022/03/13 13:39:06;;;;;;;;;;;;;;;;;;5099607;28;19938;-79
2022/03/13 13:41:34;;;;;;;;;;;;;;;;;;5104335;28;19916;-79
2022/03/13 13:44:00;;;;;;;;;;;;;;;;;;5113172;28;19915;-78
2022/03/13 13:46:30;;;;;;;;;;;;;;;;;;5121622;28;19916;-79
2022/03/13 13:48:57;;;;;;;;;;;;;;;;;;5114219;28;19916;-77
2022/03/13 13:51:24;;;;;;;;;;;;;;;;;;5110961;28;19919;-78
2022/03/13 13:53:52;;;;;;;;;;;;;;;;;;5082023;28;19970;-78
2022/03/13 13:56:29;;;;;;;;;;;;;;;;;;5107878;28;19916;-78
2022/03/13 13:59:11;;;;;;;;;;;;;;;;;;5109665;28;19916;-78
2022/03/13 14:01:36;;;;;;;;;;;;;;;;;;5089863;28;19923;-78
2022/03/13 14:04:02;;;;;;;;;;;;;;;;;;5099140;28;19915;-78
2022/03/13 14:06:34;;;;;;;;;;;;;;;;;;5105503;28;19969;-78
2022/03/13 14:09:00;;;;;;;;;;;;;;;;;;5109158;28;19916;-78
2022/03/13 14:11:26;;;;;;;;;;;;;;;;;;5108142;28;19915;-78
2022/03/13 14:13:51;;;;;;;;;;;;;;;;;;5106041;28;19969;-78
2022/03/13 14:16:18;;;;;;;;;;;;;;;;;;5108785;28;19920;-78
2022/03/13 14:18:46;;;;;;;;;;;;;;;;;;5106605;28;19920;-78
2022/03/13 14:21:12;;;;;;;;;;;;;;;;;;5112584;28;19916;-78
2022/03/13 14:23:40;;;;;;;;;;;;;;;;;;5117564;28;19916;-78
2022/03/13 14:26:05;;;;;;;;;;;;;;;;;;5116272;28;19916;-78
2022/03/13 14:28:30;;;;;;;;;;;;;;;;;;5117177;28;19916;-78
2022/03/13 14:30:56;;;;;;;;;;;;;;;;;;5117545;28;19920;-77
2022/03/13 14:33:24;;;;;;;;;;;;;;;;;;5117386;28;19916;-78
2022/03/13 14:35:50;;;;;;;;;;;;;;;;;;5117160;28;19916;-78
2022/03/13 14:38:15;;;;;;;;;;;;;;;;;;5119513;28;19968;-78
2022/03/13 14:40:41;;;;;;;;;;;;;;;;;;5119228;28;20338;-78
2022/03/13 14:43:07;;;;;;;;;;;;;;;;;;5117177;28;19919;-78
2022/03/13 14:45:32;;;;;;;;;;;;;;;;;;5117341;28;20270;-78
2022/03/13 14:47:57;;;;;;;;;;;;;;;;;;5117041;28;20307;-78
2022/03/13 14:50:24;;;;;;;;;;;;;;;;;;5117524;28;19924;-78
2022/03/13 14:52:50;;;;;;;;;;;;;;;;;;5118691;28;19915;-78
2022/03/13 14:55:15;;;;;;;;;;;;;;;;;;5118161;28;19916;-78
2022/03/13 14:57:41;;;;;;;;;;;;;;;;;;5118351;28;20327;-78
2022/03/13 15:00:09;;;;;;;;;;;;;;;;;;5117871;28;19915;-78
2022/03/13 15:02:45;;;;;;;;;;;;;;;;;;5117106;28;20055;-78
2022/03/13 15:05:11;;;;;;;;;;;;;;;;;;5116471;28;20380;-78
2022/03/13 15:07:37;;;;;;;;;;;;;;;;;;5117916;28;19912;-78
2022/03/13 15:10:05;;;;;;;;;;;;;;;;;;5118086;28;20384;-78
2022/03/13 15:12:31;;;;;;;;;;;;;;;;;;5116562;28;20013;-78
2022/03/13 15:14:56;;;;;;;;;;;;;;;;;;5117445;28;20307;-78
2022/03/13 15:17:21;;;;;;;;;;;;;;;;;;5116297;28;19954;-78
2022/03/13 15:19:47;;;;;;;;;;;;;;;;;;5116088;28;19916;-78
2022/03/13 15:22:13;;;;;;;;;;;;;;;;;;5117308;27;20323;-78
2022/03/13 15:24:42;;;;;;;;;;;;;;;;;;5099316;28;19951;-78
2022/03/13 15:27:09;;;;;;;;;;;;;;;;;;5103450;28;19966;-78
2022/03/13 15:29:35;;;;;;;;;;;;;;;;;;5116584;28;19928;-78
2022/03/13 15:32:00;;;;;;;;;;;;;;;;;;5107631;28;20323;-77
2022/03/13 15:34:26;;;;;;;;;;;;;;;;;;5100545;28;19916;-78
2022/03/13 15:36:52;;;;;;;;;;;;;;;;;;5115405;28;19923;-78
2022/03/13 15:39:18;;;;;;;;;;;;;;;;;;5105179;28;20006;-78
2022/03/13 15:41:43;;;;;;;;;;;;;;;;;;5112615;28;19996;-78
2022/03/13 15:44:09;;;;;;;;;;;;;;;;;;5096654;28;20023;-78
2022/03/13 15:46:34;;;;;;;;;;;;;;;;;;5105041;28;20347;-78
2022/03/13 15:48:59;;;;;;;;;;;;;;;;;;5096572;28;19922;-78
2022/03/13 15:51:25;;;;;;;;;;;;;;;;;;5095796;28;19974;-78
2022/03/13 15:53:50;;;;;;;;;;;;;;;;;;5096063;28;19916;-78
2022/03/13 15:56:15;;;;;;;;;;;;;;;;;;5101712;28;19920;-78
2022/03/13 15:58:41;;;;;;;;;;;;;;;;;;5119360;27;19915;-78
2022/03/13 16:01:06;;;;;;;;;;;;;;;;;;5120247;28;20269;-79
2022/03/13 16:03:32;;;;;;;;;;;;;;;;;;5116136;28;19983;-79
2022/03/13 16:05:57;;;;;;;;;;;;;;;;;;5113677;28;19912;-79
2022/03/13 16:08:24;;;;;;;;;;;;;;;;;;5119154;28;19923;-78
2022/03/13 16:10:49;;;;;;;;;;;;;;;;;;5119255;28;19919;-78
2022/03/13 16:13:15;;;;;;;;;;;;;;;;;;5105492;28;19916;-78
2022/03/13 16:15:41;;;;;;;;;;;;;;;;;;5111673;28;19915;-78
2022/03/13 16:18:10;;;;;;;;;;;;;;;;;;5121563;28;19979;-78
2022/03/13 16:20:36;;;;;;;;;;;;;;;;;;5112494;28;19960;-78
2022/03/13 16:23:02;;;;;;;;;;;;;;;;;;5100271;28;19916;-81
2022/03/13 16:25:27;;;;;;;;;;;;;;;;;;5109212;28;20509;-79
2022/03/13 16:27:53;;;;;;;;;;;;;;;;;;5129977;28;19937;-81
2022/03/13 16:30:18;;;;;;;;;;;;;;;;;;5120529;28;19920;-80
2022/03/13 16:32:43;;;;;;;;;;;;;;;;;;5118277;28;19965;-80
2022/03/13 16:35:09;;;;;;;;;;;;;;;;;;5127257;28;19915;-78
2022/03/13 16:37:34;;;;;;;;;;;;;;;;;;5121746;27;19966;-81
2022/03/13 16:40:00;;;;;;;;;;;;;;;;;;5117066;28;19916;-80
2022/03/13 16:42:26;;;;;;;;;;;;;;;;;;5116578;28;19969;-81
2022/03/13 16:44:51;;;;;;;;;;;;;;;;;;5120756;28;19916;-81